Impacts TAF Board
For situational awareness. Not to be used for flight planning purposes.
IDs:

KDHN - Dothan Rgnl, AL, US

Issued at 2324 UTC 17 Oct 2018
Updated at 0444 UTC 18 Oct 2018
Potential Impact None Slight Moderate High
Time0353Z 18/05Z 18/06Z 18/07Z 18/08Z 18/09Z 18/10Z 18/11Z 18/12Z 18/13Z 18/14Z 18/15Z 18/16Z 18/17Z>>
Type OBS PRVL PRVL PRVL PRVL PRVL PRVL PRVL PRVL PRVL PRVL PRVL PRVL PRVL
VIS 10 >6 >6 >6 >6 >6 >6 >6 >6 >6 >6 >6 >6 >6
CIG -- -- -- -- -- -- -- -- -- -- -- -- -- --
Cover CLR SCT SCT SCT SCT SCT SCT SCT SCT SCT SCT SCT SCT SCT
FltCat VFR VFR VFR VFR VFR VFR VFR VFR VFR VFR VFR VFR VFR VFR
WX -- -- -- -- -- -- -- -- -- -- -- -- -- --
WDir 30 20 20 20 20 20 20 20 20 20 40 40 40 40
WSpd 7 6 6 6 6 6 6 6 6 6 7 7 7 7
WGst -- -- -- -- -- -- -- -- -- -- -- -- -- --
Raw TAF
KDHN 172324Z 1800/1824 36008KT P6SM SKC
  FM180300 02006KT P6SM SCT100
  FM181400 04007KT P6SM SCT250


Raw METAR
KDHN 180353Z AUTO 03007KT 10SM CLR 21/18 A3027 RMK AO2 SLP244 T02060178
KDHN 180253Z AUTO 01011KT 10SM CLR 22/18 A3026 RMK AO2 SLP242 T02170183 51019
KDHN 180153Z AUTO 36008KT 10SM CLR 22/19 A3025 RMK AO2 SLP238 T02220189

METAR Board
Radar Display
Forecast Discussion
For situational awareness. Not to be used for flight planning purposes.